Terminal Aerodrome Forecast
Issued by NWS Northern Indiana

Home | Current Version | Previous Version | Graphics & Text | Print | Product List | Glossary On
Versions: 1 2 3 4 5 6 7 8 9 10 11 12 13 14 15
867
FTUS43 KIWX 202321
TAFFWA
TAF
KFWA 202321Z 2100/2124 14008KT P6SM BKN200
     FM211100 19010KT 6SM BR VCSH SCT060 BKN100
     FM211500 24009KT 3SM -SHRA BR SCT012 OVC025
     FM211900 25008KT 5SM BR BKN025=

USA.gov is the U.S. government's official web portal to all federal, state and local government web resources and services.